Archival Weather

Norman Y Mineta San Jose Intl

San Jose, California (KSJC)

Report from: Saturday, February 17, 2024 4:53 PM PST
Current time: Monday, June 24, 2024 3:53 AM PDT

Current weather – Weather history – Daily summaries
Weather forecast

Temperature14.4°C (57.9°F)
Dew point10.0°C (50.0°F)
Winds 14 kts (7.2 m/s, 16.1 mph) South-Southeast (150°)
Visibility10 mi. (16.1 km)
Clouds Few clouds 500 ft. (152 m)
Ceiling: Broken clouds 3,800 ft. (1,158 m)
Overcast 5,500 ft. (1,676 m)
Altimeter29.87 in.Hg (1012 mB)
PrecipitiationTrace
Precip. events Rain ended 12:04 AM
Relative humidity75 %
Density altitude169 ft. (51 m)
Sea-level pressure101.1 kPa (1011 mB, 29.86 in.Hg)
Remarks Automated weather observing station with precipitation discriminator
Flight conditions Visual Meteorological Conditions
Raw dataKSJC 180053Z 15014KT 10SM FEW005 BKN038 OVC055 14/10 A2987 RMK AO2 RAE04 SLP113 P0000 T01440100
An error has occurred. This application may no longer respond until reloaded. Reload 🗙